TimeEDT,TemperatureF,Dew PointF,Humidity,Sea Level PressureIn,VisibilityMPH,Wind Direction,Wind SpeedMPH,Gust SpeedMPH,PrecipitationIn,Events,Conditions,WindDirDegrees,DateUTC
12:03 AM,60.8,59.0,94,30.04,0.8,Calm,Calm,-,N/A,,Mist,0,2012-10-05 04:03:00
12:14 AM,60.8,59.0,94,30.04,0.2,Calm,Calm,-,N/A,Fog,Fog,0,2012-10-05 04:14:00
12:21 AM,59.0,57.2,94,30.04,0.2,Calm,Calm,-,N/A,Fog,Fog,0,2012-10-05 04:21:00
12:43 AM,57.2,57.2,100,30.04,0.2,Calm,Calm,-,N/A,Fog,Fog,0,2012-10-05 04:43:00
12:51 AM,57.2,57.2,100,30.04,0.2,Calm,Calm,-,N/A,Fog,Fog,0,2012-10-05 04:51:00
12:53 AM,57.9,55.9,93,30.04,0.2,Calm,Calm,-,N/A,Fog,Fog,0,2012-10-05 04:53:00
1:08 AM,57.2,55.4,94,30.04,0.5,Calm,Calm,-,N/A,Fog,Fog,0,2012-10-05 05:08:00
1:20 AM,57.2,55.4,94,30.04,0.2,Calm,Calm,-,N/A,Fog,Fog,0,2012-10-05 05:20:00
1:33 AM,57.2,55.4,94,30.04,0.2,Calm,Calm,-,N/A,Fog,Fog,0,2012-10-05 05:33:00
1:43 AM,57.2,55.4,94,30.04,0.2,Calm,Calm,-,N/A,Fog,Fog,0,2012-10-05 05:43:00
1:53 AM,55.9,55.0,97,30.04,0.2,Calm,Calm,-,N/A,Fog,Fog,0,2012-10-05 05:53:00
2:09 AM,57.2,55.4,94,30.04,0.2,Calm,Calm,-,N/A,Fog,Fog,0,2012-10-05 06:09:00
2:18 AM,57.2,55.4,94,30.04,0.2,Calm,Calm,-,N/A,Fog,Fog,0,2012-10-05 06:18:00
2:53 AM,55.9,54.0,93,30.03,0.2,Calm,Calm,-,N/A,Fog,Fog,0,2012-10-05 06:53:00
3:18 AM,55.4,53.6,94,30.03,0.2,Calm,Calm,-,N/A,Fog,Fog,0,2012-10-05 07:18:00
3:44 AM,55.4,53.6,94,30.03,0.5,Calm,Calm,-,N/A,Fog,Fog,0,2012-10-05 07:44:00
3:53 AM,54.0,52.0,93,30.03,0.5,Calm,Calm,-,N/A,Fog,Fog,0,2012-10-05 07:53:00
4:27 AM,53.6,51.8,94,30.03,0.2,Calm,Calm,-,N/A,Fog,Fog,0,2012-10-05 08:27:00
4:35 AM,53.6,51.8,94,30.03,0.2,Calm,Calm,-,N/A,Fog,Fog,0,2012-10-05 08:35:00
4:50 AM,53.6,51.8,94,30.03,0.2,Calm,Calm,-,N/A,Fog,Fog,0,2012-10-05 08:50:00
4:53 AM,53.1,51.1,93,30.04,0.2,Calm,Calm,-,N/A,Fog,Fog,0,2012-10-05 08:53:00
5:15 AM,53.6,51.8,94,30.03,0.5,Calm,Calm,-,N/A,Fog,Fog,0,2012-10-05 09:15:00
5:44 AM,51.8,50.0,94,30.03,0.2,Calm,Calm,-,N/A,Fog,Fog,0,2012-10-05 09:44:00
5:53 AM,52.0,50.0,93,30.04,0.2,Calm,Calm,-,N/A,Fog,Fog,0,2012-10-05 09:53:00
6:05 AM,51.8,50.0,94,30.04,0.2,Calm,Calm,-,0.01,Fog,Fog,0,2012-10-05 10:05:00
6:17 AM,51.8,48.2,88,30.04,0.5,Calm,Calm,-,0.01,Fog,Fog,0,2012-10-05 10:17:00
6:53 AM,50.0,48.9,96,30.05,0.5,SSW,3.5,-,0.01,Fog,Fog,210,2012-10-05 10:53:00
7:02 AM,51.8,48.2,88,30.05,0.2,SSW,3.5,-,N/A,Fog,Fog,210,2012-10-05 11:02:00
7:53 AM,53.1,52.0,96,30.05,0.2,SSE,3.5,-,N/A,Fog,Fog,160,2012-10-05 11:53:00
8:11 AM,53.6,51.8,94,30.04,0.2,South,3.5,-,N/A,Fog,Fog,170,2012-10-05 12:11:00
8:46 AM,55.4,53.6,94,30.04,0.2,Calm,Calm,-,N/A,Fog,Fog,0,2012-10-05 12:46:00
8:53 AM,55.9,55.0,97,30.05,0.2,Calm,Calm,-,N/A,Fog,Fog,0,2012-10-05 12:53:00
9:04 AM,57.2,55.4,94,30.05,1.0,SSW,3.5,-,N/A,,Mist,210,2012-10-05 13:04:00
9:16 AM,57.2,55.4,94,30.05,10.0,SSW,3.5,-,N/A,,Clear,200,2012-10-05 13:16:00
9:53 AM,60.1,57.0,90,30.04,10.0,South,3.5,-,N/A,,Clear,170,2012-10-05 13:53:00
10:53 AM,66.9,57.9,73,30.04,10.0,Calm,Calm,-,N/A,,Clear,0,2012-10-05 14:53:00
11:53 AM,72.0,55.9,57,30.03,10.0,Variable,5.8,-,N/A,,Clear,0,2012-10-05 15:53:00
12:53 PM,75.2,55.4,50,30.00,10.0,SSW,6.9,-,N/A,,Clear,210,2012-10-05 16:53:00
1:53 PM,77.0,52.0,42,29.96,10.0,SW,4.6,-,N/A,,Clear,220,2012-10-05 17:53:00
2:53 PM,78.1,51.1,39,29.95,10.0,SW,6.9,-,N/A,,Clear,220,2012-10-05 18:53:00
3:53 PM,78.1,48.9,36,29.94,10.0,SSW,6.9,-,N/A,,Clear,210,2012-10-05 19:53:00
4:53 PM,77.0,51.1,40,29.93,10.0,South,5.8,-,N/A,,Clear,180,2012-10-05 20:53:00
5:53 PM,72.0,55.9,57,29.94,10.0,South,4.6,-,N/A,,Clear,170,2012-10-05 21:53:00
6:53 PM,64.0,59.0,84,29.94,10.0,Calm,Calm,-,N/A,,Clear,0,2012-10-05 22:53:00
7:53 PM,62.1,57.9,86,29.94,10.0,Calm,Calm,-,N/A,,Clear,0,2012-10-05 23:53:00
8:53 PM,62.1,57.0,84,29.94,10.0,South,3.5,-,N/A,,Clear,190,2012-10-06 00:53:00
9:53 PM,61.0,55.9,83,29.94,10.0,SSE,4.6,-,N/A,,Clear,160,2012-10-06 01:53:00
10:53 PM,59.0,55.9,90,29.93,10.0,South,3.5,-,N/A,,Clear,190,2012-10-06 02:53:00
11:53 PM,57.0,55.0,93,29.91,7.0,SSW,3.5,-,N/A,,Clear,200,2012-10-06 03:53:00